createdAt,value
2023-02-27T00:01:10.509Z,102974.72
2023-02-27T00:03:43.044Z,102973.75
2023-02-27T00:06:15.013Z,102968.50
2023-02-27T00:08:47.115Z,102975.13
2023-02-27T00:11:22.153Z,102975.94
2023-02-27T00:13:54.226Z,102974.94
2023-02-27T00:16:26.656Z,102974.84
2023-02-27T00:19:01.398Z,102967.19
2023-02-27T00:21:35.849Z,102976.41
2023-02-27T00:24:09.808Z,102968.00
2023-02-27T00:26:45.064Z,102962.94
2023-02-27T00:29:17.793Z,102957.78
2023-02-27T00:31:50.003Z,102959.47
2023-02-27T00:34:22.159Z,102962.75
2023-02-27T00:36:54.137Z,102962.94
2023-02-27T00:39:26.113Z,102968.00
2023-02-27T00:41:58.101Z,102965.50
2023-02-27T00:44:30.078Z,102961.25
2023-02-27T00:47:02.119Z,102970.78
2023-02-27T00:49:34.201Z,102964.53
2023-02-27T00:52:06.285Z,102969.47
2023-02-27T00:54:38.407Z,102971.16
2023-02-27T00:57:10.393Z,102969.47
2023-02-27T00:59:43.867Z,102963.31
2023-02-27T01:02:16.037Z,102966.00
2023-02-27T01:04:48.335Z,102967.09
2023-02-27T01:07:20.549Z,102968.78
2023-02-27T01:09:52.563Z,102969.69
2023-02-27T01:12:24.786Z,102968.78
2023-02-27T01:14:56.762Z,102961.06
2023-02-27T01:17:28.799Z,102955.78
2023-02-27T01:20:00.802Z,102959.97
2023-02-27T01:22:33.481Z,102956.97
2023-02-27T01:25:06.150Z,102949.94
2023-02-27T01:27:38.226Z,102961.84
2023-02-27T01:30:12.890Z,102954.81
2023-02-27T01:32:44.916Z,102959.06
2023-02-27T01:35:18.000Z,102953.81
2023-02-27T01:37:50.074Z,102957.06
2023-02-27T01:40:22.210Z,102958.75
2023-02-27T01:42:54.299Z,102957.06
2023-02-27T01:45:33.619Z,102955.28
2023-02-27T01:48:15.168Z,102956.19
2023-02-27T01:50:56.920Z,102952.81
2023-02-27T01:53:33.634Z,102952.81
2023-02-27T01:56:24.794Z,102954.59
2023-02-27T01:59:05.437Z,102956.19
2023-02-27T02:01:37.820Z,102958.75
2023-02-27T02:04:37.204Z,102968.84
2023-02-27T02:07:17.205Z,102966.97
2023-02-27T02:09:54.173Z,102965.88
2023-02-27T02:12:31.348Z,102969.34
2023-02-27T02:15:06.276Z,102968.44
2023-02-27T02:18:02.014Z,102964.00
2023-02-27T02:21:08.314Z,102968.94
2023-02-27T02:24:18.344Z,102963.69
2023-02-27T02:27:19.174Z,102971.22
2023-02-27T02:30:25.579Z,102973.66
2023-02-27T02:33:22.168Z,102970.97
2023-02-27T02:36:34.966Z,102976.00
2023-02-27T02:39:50.188Z,102969.06
2023-02-27T02:42:38.662Z,102965.50
2023-02-27T02:45:52.999Z,102971.34
2023-02-27T02:49:23.121Z,102974.59
2023-02-27T02:52:16.173Z,102973.72
2023-02-27T02:55:22.619Z,102986.47
2023-02-27T02:58:08.637Z,102976.19
2023-02-27T03:00:50.618Z,102978.66
2023-02-27T03:03:37.417Z,102978.66
2023-02-27T03:06:35.227Z,102976.19
2023-02-27T03:09:37.871Z,102980.44
2023-02-27T03:12:14.695Z,102983.81
2023-02-27T03:15:00.869Z,102979.66
2023-02-27T03:17:38.716Z,102974.41
2023-02-27T03:20:29.717Z,102978.66
2023-02-27T03:23:10.342Z,102970.72
2023-02-27T03:25:46.422Z,102968.94
2023-02-27T03:28:24.556Z,102981.72
2023-02-27T03:31:10.146Z,102975.66
2023-02-27T03:34:17.784Z,102975.56
2023-02-27T03:37:23.878Z,102976.25
2023-02-27T03:40:06.546Z,102975.47
2023-02-27T03:43:02.555Z,102974.56
2023-02-27T03:45:40.115Z,102977.03
2023-02-27T03:48:12.411Z,102982.19
2023-02-27T03:50:44.499Z,102978.72
2023-02-27T03:53:43.994Z,102979.81
2023-02-27T03:56:21.039Z,102982.19
2023-02-27T03:58:54.300Z,102981.41
2023-02-27T04:01:26.946Z,102986.53
2023-02-27T04:04:07.723Z,102989.22
2023-02-27T04:07:03.793Z,102990.13
2023-02-27T04:09:44.525Z,103000.31
2023-02-27T04:12:50.039Z,103003.88
2023-02-27T04:16:00.872Z,103000.41
2023-02-27T04:19:00.943Z,103002.88
2023-02-27T04:22:04.944Z,103018.34
2023-02-27T04:24:50.182Z,103012.41
2023-02-27T04:27:45.273Z,103019.44
2023-02-27T04:30:28.753Z,103017.06
2023-02-27T04:33:30.620Z,103023.53
2023-02-27T04:36:16.567Z,103025.41
2023-02-27T04:39:19.136Z,103023.06
2023-02-27T04:42:03.559Z,103021.06
2023-02-27T04:44:39.262Z,103028.00
2023-02-27T04:47:14.549Z,103033.94
2023-02-27T04:49:55.782Z,103025.41
2023-02-27T04:52:43.967Z,103030.56
2023-02-27T04:55:27.333Z,103033.25
2023-02-27T04:58:06.456Z,103036.72
2023-02-27T05:00:42.088Z,103032.25
2023-02-27T05:03:25.357Z,103038.50
2023-02-27T05:06:01.029Z,103039.09
2023-02-27T05:08:51.400Z,103040.09
2023-02-27T05:12:21.660Z,103038.28
2023-02-27T05:15:07.221Z,103038.97
2023-02-27T05:18:04.427Z,103042.44
2023-02-27T05:20:54.367Z,103046.72
2023-02-27T05:23:56.486Z,103043.34
2023-02-27T05:27:30.666Z,103044.81
2023-02-27T05:30:25.524Z,103043.13
2023-02-27T05:33:13.190Z,103049.19
2023-02-27T05:36:05.518Z,103048.38
2023-02-27T05:38:44.703Z,103044.81
2023-02-27T05:41:53.382Z,103049.97
2023-02-27T05:44:34.325Z,103056.69
2023-02-27T05:47:13.014Z,103058.47
2023-02-27T05:49:53.811Z,103065.41
2023-02-27T05:52:28.092Z,103062.63
2023-02-27T05:55:17.032Z,103059.94
2023-02-27T05:58:06.683Z,103065.78
2023-02-27T06:00:52.144Z,103063.19
2023-02-27T06:03:25.353Z,103061.41
2023-02-27T06:06:00.944Z,103060.53
2023-02-27T06:08:33.586Z,103071.59
2023-02-27T06:11:08.530Z,103066.56
2023-02-27T06:13:42.124Z,103074.28
2023-02-27T06:16:15.681Z,103072.88
2023-02-27T06:18:47.790Z,103075.44
2023-02-27T06:21:19.842Z,103079.78
2023-02-27T06:23:53.325Z,103087.53
2023-02-27T06:26:25.814Z,103082.38
2023-02-27T06:29:02.830Z,103077.22
2023-02-27T06:31:34.837Z,103088.41
2023-02-27T06:34:08.582Z,103094.47
2023-02-27T06:36:40.777Z,103095.34
2023-02-27T06:39:13.024Z,103092.00
2023-02-27T06:41:45.011Z,103102.28
2023-02-27T06:44:19.395Z,103101.59
2023-02-27T06:46:51.486Z,103105.06
2023-02-27T06:49:23.573Z,103106.97
2023-02-27T06:51:56.593Z,103103.63
2023-02-27T06:54:28.530Z,103110.66
2023-02-27T06:57:05.200Z,103117.69
2023-02-27T06:59:37.189Z,103111.75
2023-02-27T07:02:17.004Z,103114.56
2023-02-27T07:04:49.087Z,103118.03
2023-02-27T07:07:35.931Z,103118.44
2023-02-27T07:10:14.030Z,103118.66
2023-02-27T07:12:46.021Z,103125.75
2023-02-27T07:15:18.250Z,103123.28
2023-02-27T07:17:50.253Z,103124.59
2023-02-27T07:20:22.224Z,103125.00
2023-02-27T07:22:54.264Z,103123.84
2023-02-27T07:25:27.371Z,103126.84
2023-02-27T07:27:59.386Z,103129.75
2023-02-27T07:30:31.513Z,103125.69
2023-02-27T07:33:03.634Z,103130.56
2023-02-27T07:35:35.690Z,103131.19
2023-02-27T07:38:07.676Z,103131.94
2023-02-27T07:40:43.074Z,103135.03
2023-02-27T07:43:15.617Z,103139.22
2023-02-27T07:45:47.828Z,103136.44
2023-02-27T07:48:21.454Z,103140.22
2023-02-27T07:50:53.464Z,103134.09
2023-02-27T07:53:26.039Z,103132.00
2023-02-27T07:55:58.126Z,103133.28
2023-02-27T07:58:30.151Z,103123.78
2023-02-27T08:01:02.081Z,103125.34
2023-02-27T08:03:34.143Z,103133.78
2023-02-27T08:06:06.570Z,103129.56
2023-02-27T08:08:39.112Z,103124.75
2023-02-27T08:11:11.227Z,103128.59
2023-02-27T08:14:00.019Z,103128.00
2023-02-27T08:16:33.407Z,103125.28
2023-02-27T08:19:05.646Z,103135.50
2023-02-27T08:21:37.599Z,103127.19
2023-02-27T08:24:09.598Z,103125.28
2023-02-27T08:26:41.945Z,103124.16
2023-02-27T08:29:16.100Z,103130.81
2023-02-27T08:31:49.909Z,103128.69
2023-02-27T08:34:22.106Z,103130.31
2023-02-27T08:36:54.684Z,103126.81
2023-02-27T08:39:28.731Z,103126.13
2023-02-27T08:42:00.823Z,103128.63
2023-02-27T08:44:33.567Z,103129.88
2023-02-27T08:47:05.728Z,103125.16
2023-02-27T08:49:37.771Z,103133.63
2023-02-27T08:52:12.641Z,103127.19
2023-02-27T08:54:48.748Z,103132.94
2023-02-27T08:57:20.928Z,103138.84
2023-02-27T08:59:53.223Z,103127.88
2023-02-27T09:02:29.285Z,103127.28
2023-02-27T09:05:01.981Z,103137.00
2023-02-27T09:07:34.636Z,103144.94
2023-02-27T09:10:10.865Z,103144.16
2023-02-27T09:12:44.574Z,103139.16
2023-02-27T09:15:16.878Z,103146.13
2023-02-27T09:17:48.966Z,103148.78
2023-02-27T09:20:21.059Z,103154.78
2023-02-27T09:22:59.802Z,103161.28
2023-02-27T09:25:36.293Z,103150.56
2023-02-27T09:28:08.426Z,103155.28
2023-02-27T09:30:40.721Z,103146.19
2023-02-27T09:33:12.984Z,103152.53
2023-02-27T09:35:45.217Z,103147.97
2023-02-27T09:38:17.402Z,103157.09
2023-02-27T09:40:52.967Z,103155.47
2023-02-27T09:43:37.428Z,103152.69
2023-02-27T09:46:18.158Z,103156.31
2023-02-27T09:48:54.466Z,103155.41
2023-02-27T09:51:28.479Z,103165.06
2023-02-27T09:54:01.981Z,103166.03
2023-02-27T09:56:49.567Z,103164.66
2023-02-27T09:59:45.173Z,103166.06
2023-02-27T10:06:32.695Z,103167.50
2023-02-27T10:10:12.717Z,103180.78
2023-02-27T10:13:33.828Z,103179.81
2023-02-27T10:16:08.840Z,103180.41
2023-02-27T10:18:54.400Z,103174.81
2023-02-27T10:21:35.431Z,103177.22
2023-02-27T10:24:27.646Z,103177.91
2023-02-27T10:27:05.713Z,103185.03
2023-02-27T10:29:42.184Z,103175.59
2023-02-27T10:32:25.592Z,103180.22
2023-02-27T10:35:21.512Z,103175.56
2023-02-27T10:38:01.400Z,103176.34
2023-02-27T10:40:36.662Z,103165.28
2023-02-27T10:43:09.249Z,103160.44
2023-02-27T10:45:42.351Z,103156.50
2023-02-27T10:48:15.623Z,103149.50
2023-02-27T10:50:52.450Z,103152.09
2023-02-27T10:53:27.317Z,103150.34
2023-02-27T10:56:08.045Z,103147.41
2023-02-27T10:58:40.702Z,103143.38
2023-02-27T11:01:13.586Z,103155.94
2023-02-27T11:03:46.061Z,103154.38
2023-02-27T11:06:26.968Z,103161.22
2023-02-27T11:09:26.644Z,103160.69
2023-02-27T11:12:11.268Z,103165.31
2023-02-27T11:14:56.564Z,103171.16
2023-02-27T11:17:34.483Z,103167.09
2023-02-27T11:20:40.795Z,103167.16
2023-02-27T11:23:24.592Z,103161.53
2023-02-27T11:26:15.581Z,103168.47
2023-02-27T11:29:19.010Z,103174.81
2023-02-27T11:31:54.741Z,103169.53
2023-02-27T11:34:38.046Z,103168.78
2023-02-27T11:37:34.333Z,103172.09
2023-02-27T11:40:09.603Z,103168.91
2023-02-27T11:42:52.102Z,103160.00
2023-02-27T11:46:04.587Z,103158.03
2023-02-27T11:48:41.925Z,103167.47
2023-02-27T11:51:44.653Z,103161.78
2023-02-27T11:54:50.999Z,103165.56
2023-02-27T11:57:39.036Z,103162.69
2023-02-27T12:00:41.433Z,103164.22
2023-02-27T12:03:35.828Z,103158.69
2023-02-27T12:06:40.050Z,103160.63
2023-02-27T12:09:32.704Z,103158.66
2023-02-27T12:12:24.893Z,103146.03
2023-02-27T12:15:26.587Z,103144.81
2023-02-27T12:18:18.806Z,103145.81
2023-02-27T12:21:16.129Z,103140.84
2023-02-27T12:24:30.100Z,103142.28
2023-02-27T12:27:21.224Z,103138.72
2023-02-27T12:30:06.310Z,103138.66
2023-02-27T12:32:50.516Z,103141.06
2023-02-27T12:35:33.235Z,103137.31
2023-02-27T12:38:07.427Z,103133.41
2023-02-27T12:41:23.361Z,103137.78
2023-02-27T12:44:14.205Z,103126.47
2023-02-27T12:47:32.959Z,103128.53
2023-02-27T12:50:22.110Z,103127.34
2023-02-27T12:53:05.754Z,103126.97
2023-02-27T12:55:55.311Z,103113.31
2023-02-27T12:58:59.981Z,103120.31
2023-02-27T13:01:48.408Z,103113.84
2023-02-27T13:04:42.767Z,103115.34
2023-02-27T13:07:37.562Z,103107.84
2023-02-27T13:10:27.051Z,103108.53
2023-02-27T13:13:11.635Z,103106.94
2023-02-27T13:15:59.642Z,103109.84
2023-02-27T13:18:45.819Z,103094.03
2023-02-27T13:21:53.110Z,103104.75
2023-02-27T13:24:28.523Z,103100.84
2023-02-27T13:27:39.219Z,103097.94
2023-02-27T13:30:27.487Z,103097.88
2023-02-27T13:33:42.513Z,103092.97
2023-02-27T13:36:39.584Z,103099.84
2023-02-27T13:39:42.442Z,103091.00
2023-02-27T13:42:26.910Z,103094.84
2023-02-27T13:45:06.398Z,103100.84
2023-02-27T13:47:50.060Z,103096.22
2023-02-27T13:50:25.974Z,103105.28
2023-02-27T13:53:10.850Z,103101.25
2023-02-27T13:55:43.022Z,103113.88
2023-02-27T13:58:18.505Z,103118.72
2023-02-27T14:01:00.192Z,103118.06
2023-02-27T14:03:32.846Z,103119.59
2023-02-27T14:06:06.954Z,103121.06
2023-02-27T14:08:57.561Z,103124.72
2023-02-27T14:11:40.025Z,103117.44
2023-02-27T14:14:44.417Z,103124.38
2023-02-27T14:17:36.949Z,103124.78
2023-02-27T14:20:32.079Z,103122.72
2023-02-27T14:23:16.254Z,103131.06
2023-02-27T14:26:00.230Z,103122.06
2023-02-27T14:28:51.872Z,103124.13
2023-02-27T14:31:33.108Z,103128.75
2023-02-27T14:34:16.223Z,103133.31
2023-02-27T14:36:54.194Z,103136.75
2023-02-27T14:39:31.438Z,103130.03
2023-02-27T14:42:47.174Z,103131.53
2023-02-27T14:45:24.554Z,103123.84
2023-02-27T14:47:58.357Z,103126.53
2023-02-27T14:50:39.346Z,103129.13
2023-02-27T14:53:27.268Z,103125.94
2023-02-27T14:58:55.476Z,103125.25
2023-02-27T15:01:36.076Z,103127.97
2023-02-27T15:04:08.836Z,103125.25
2023-02-27T15:06:45.475Z,103116.34
2023-02-27T15:09:31.195Z,103105.81
2023-02-27T15:12:05.043Z,103112.16
2023-02-27T15:14:40.177Z,103114.66
2023-02-27T15:17:23.015Z,103123.13
2023-02-27T15:19:58.699Z,103126.75
2023-02-27T15:22:39.519Z,103125.88
2023-02-27T15:25:40.038Z,103125.88
2023-02-27T15:28:26.416Z,103130.03
2023-02-27T15:30:58.767Z,103122.72
2023-02-27T15:33:33.020Z,103125.25
2023-02-27T15:36:06.221Z,103127.91
2023-02-27T15:38:41.116Z,103131.56
2023-02-27T15:41:20.769Z,103137.44
2023-02-27T15:43:53.914Z,103135.91
2023-02-27T15:46:26.890Z,103128.47
2023-02-27T15:48:59.850Z,103133.31
2023-02-27T15:51:32.054Z,103137.84
2023-02-27T15:54:04.687Z,103135.31
2023-02-27T15:56:38.721Z,103129.09
2023-02-27T15:59:16.212Z,103133.06
2023-02-27T16:01:49.932Z,103144.00
2023-02-27T16:04:26.640Z,103138.19
2023-02-27T16:07:17.220Z,103153.28
2023-02-27T16:10:06.794Z,103148.78
2023-02-27T16:12:43.064Z,103148.47
2023-02-27T16:15:32.961Z,103154.50
2023-02-27T16:18:08.615Z,103151.59
2023-02-27T16:20:55.798Z,103149.81
2023-02-27T16:23:32.945Z,103156.72
2023-02-27T16:26:29.423Z,103148.66
2023-02-27T16:29:22.943Z,103157.25
2023-02-27T16:31:57.692Z,103146.72
2023-02-27T16:34:45.502Z,103151.78
2023-02-27T16:37:41.217Z,103148.72
2023-02-27T16:40:18.447Z,103151.91
2023-02-27T16:42:53.848Z,103150.28
2023-02-27T16:45:32.425Z,103155.41
2023-02-27T16:48:05.885Z,103162.47
2023-02-27T16:50:43.130Z,103154.66
2023-02-27T16:53:18.033Z,103155.63
2023-02-27T16:55:52.807Z,103160.97
2023-02-27T16:58:25.980Z,103160.00
2023-02-27T17:01:01.154Z,103165.19
2023-02-27T17:03:33.442Z,103167.94
2023-02-27T17:06:07.943Z,103169.88
2023-02-27T17:08:43.044Z,103167.44
2023-02-27T17:11:15.048Z,103165.13
2023-02-27T17:14:00.437Z,103171.13
2023-02-27T17:16:33.475Z,103169.44
2023-02-27T17:19:08.942Z,103173.88
2023-02-27T17:21:41.837Z,103180.72
2023-02-27T17:24:14.942Z,103178.88
2023-02-27T17:26:50.479Z,103177.00
2023-02-27T17:29:27.831Z,103182.19
2023-02-27T17:32:01.722Z,103176.94
2023-02-27T17:34:34.009Z,103168.91
2023-02-27T17:37:06.791Z,103168.16
2023-02-27T17:39:39.569Z,103171.22
2023-02-27T17:42:13.095Z,103163.19
2023-02-27T17:44:46.644Z,103168.06
2023-02-27T17:47:19.005Z,103172.06
2023-02-27T17:49:51.028Z,103167.59
2023-02-27T17:52:23.202Z,103163.81
2023-02-27T17:54:55.869Z,103164.47
2023-02-27T17:57:32.356Z,103166.69
2023-02-27T18:00:15.392Z,103166.00
2023-02-27T18:02:48.399Z,103175.97
2023-02-27T18:05:22.082Z,103172.19
2023-02-27T18:08:08.940Z,103172.53
2023-02-27T18:16:46.360Z,103174.00
2023-02-27T18:19:19.018Z,103176.25
2023-02-27T18:21:54.664Z,103177.72
2023-02-27T18:24:26.993Z,103176.59
2023-02-27T18:26:59.019Z,103171.97
2023-02-27T18:29:32.618Z,103170.03
2023-02-27T18:32:05.941Z,103158.50
2023-02-27T18:35:04.851Z,103165.16
2023-02-27T18:37:37.056Z,103168.47
2023-02-27T18:40:12.050Z,103181.25
2023-02-27T18:42:47.838Z,103176.69
2023-02-27T18:45:20.455Z,103183.47
2023-02-27T18:47:53.127Z,103185.00
2023-02-27T18:50:25.643Z,103193.59
2023-02-27T18:53:01.060Z,103181.34
2023-02-27T18:55:34.492Z,103183.88
2023-02-27T18:58:07.062Z,103186.38
2023-02-27T19:00:42.666Z,103188.16
2023-02-27T19:03:16.619Z,103189.78
2023-02-27T19:05:49.872Z,103183.78
2023-02-27T19:08:25.131Z,103185.47
2023-02-27T19:10:58.884Z,103185.31
2023-02-27T19:13:31.392Z,103186.13
2023-02-27T19:16:06.966Z,103177.44
2023-02-27T19:18:42.266Z,103186.19
2023-02-27T19:21:18.792Z,103185.31
2023-02-27T19:24:04.575Z,103193.34
2023-02-27T19:26:42.406Z,103193.69
2023-02-27T19:29:15.185Z,103185.34
2023-02-27T19:31:47.387Z,103189.13
2023-02-27T19:34:19.541Z,103188.47
2023-02-27T19:36:52.034Z,103192.94
2023-02-27T19:39:23.982Z,103199.25
2023-02-27T19:41:56.766Z,103198.63
2023-02-27T19:44:28.791Z,103203.97
2023-02-27T19:47:00.921Z,103207.69
2023-02-27T19:49:32.984Z,103206.25
2023-02-27T19:52:05.376Z,103198.78
2023-02-27T19:54:41.104Z,103221.31
2023-02-27T19:57:14.377Z,103211.75
2023-02-27T19:59:46.878Z,103210.16
2023-02-27T20:02:18.873Z,103210.16
2023-02-27T20:04:50.937Z,103205.59
2023-02-27T20:07:24.041Z,103200.41
2023-02-27T20:09:57.366Z,103201.47
2023-02-27T20:12:29.420Z,103209.41
2023-02-27T20:15:10.328Z,103209.41
2023-02-27T20:17:42.418Z,103211.28
2023-02-27T20:20:14.605Z,103214.84
2023-02-27T20:22:46.793Z,103212.16
2023-02-27T20:25:19.214Z,103208.69
2023-02-27T20:27:51.451Z,103211.34
2023-02-27T20:30:27.448Z,103209.81
2023-02-27T20:32:59.976Z,103217.59
2023-02-27T20:35:34.425Z,103217.59
2023-02-27T20:38:07.022Z,103218.50
2023-02-27T20:40:39.006Z,103215.09
2023-02-27T20:43:11.081Z,103217.69
2023-02-27T20:45:43.198Z,103225.47
2023-02-27T20:48:15.478Z,103222.06
2023-02-27T20:50:47.872Z,103219.31
2023-02-27T20:53:19.855Z,103224.41
2023-02-27T20:55:51.841Z,103223.75
2023-02-27T20:58:23.904Z,103224.66
2023-02-27T21:00:55.959Z,103223.94
2023-02-27T21:03:33.545Z,103221.16
2023-02-27T21:06:10.541Z,103224.56
2023-02-27T21:08:49.302Z,103222.97
2023-02-27T21:11:29.786Z,103225.53
2023-02-27T21:14:11.748Z,103224.91
2023-02-27T21:16:43.782Z,103219.78
2023-02-27T21:19:16.706Z,103225.63
2023-02-27T21:21:48.914Z,103220.69
2023-02-27T21:24:21.606Z,103225.78
2023-02-27T21:26:53.667Z,103225.88
2023-02-27T21:29:25.841Z,103228.47
2023-02-27T21:31:57.838Z,103229.19
2023-02-27T21:34:30.217Z,103224.09
2023-02-27T21:37:05.941Z,103230.16
2023-02-27T21:39:38.562Z,103233.75
2023-02-27T21:42:10.528Z,103234.63
2023-02-27T21:44:43.925Z,103230.34
2023-02-27T21:47:15.938Z,103234.72
2023-02-27T21:49:48.016Z,103232.03
2023-02-27T21:52:20.199Z,103231.78
2023-02-27T21:54:54.261Z,103220.28
2023-02-27T21:57:26.270Z,103222.63
2023-02-27T21:59:58.327Z,103215.81
2023-02-27T22:02:30.466Z,103223.59
2023-02-27T22:05:02.927Z,103221.16
2023-02-27T22:07:35.111Z,103217.03
2023-02-27T22:10:07.534Z,103225.63
2023-02-27T22:12:39.538Z,103227.41
2023-02-27T22:15:15.019Z,103229.19
2023-02-27T22:17:48.042Z,103227.41
2023-02-27T22:20:20.500Z,103228.31
2023-02-27T22:22:52.565Z,103234.38
2023-02-27T22:25:24.589Z,103227.41
2023-02-27T22:27:56.566Z,103229.19
2023-02-27T22:30:30.129Z,103224.91
2023-02-27T22:33:02.315Z,103233.66
2023-02-27T22:35:36.730Z,103228.31
2023-02-27T22:38:08.784Z,103226.53
2023-02-27T22:40:40.749Z,103230.00
2023-02-27T22:43:12.757Z,103230.81
2023-02-27T22:45:48.764Z,103234.22
2023-02-27T22:48:22.692Z,103239.50
2023-02-27T22:51:15.780Z,103237.47
2023-02-27T22:54:16.774Z,103230.25
2023-02-27T22:56:57.969Z,103233.47
2023-02-27T22:59:30.107Z,103243.03
2023-02-27T23:02:02.165Z,103222.31
2023-02-27T23:04:34.361Z,103219.78
2023-02-27T23:07:06.295Z,103223.28
2023-02-27T23:09:40.722Z,103232.19
2023-02-27T23:12:12.835Z,103228.53
2023-02-27T23:14:44.846Z,103223.34
2023-02-27T23:17:16.969Z,103227.66
2023-02-27T23:19:49.904Z,103224.97
2023-02-27T23:22:22.089Z,103225.94
2023-02-27T23:24:54.169Z,103218.41
2023-02-27T23:27:26.634Z,103216.72
2023-02-27T23:30:05.220Z,103215.97
2023-02-27T23:32:43.658Z,103219.47
2023-02-27T23:35:17.337Z,103223.69
2023-02-27T23:37:51.869Z,103229.59
2023-02-27T23:40:27.152Z,103227.16
2023-02-27T23:43:17.512Z,103225.47
2023-02-27T23:45:51.049Z,103224.00
2023-02-27T23:48:23.344Z,103216.94
2023-02-27T23:50:59.622Z,103228.38
2023-02-27T23:53:33.600Z,103227.41
2023-02-27T23:56:24.529Z,103221.97
2023-02-27T23:59:07.524Z,103222.78
